Time;durP1;ratioP1;P1;durP2;ratioP2;P2;SDS_P1;SDS_P2;PMS_P1;PMS_P2;Temp;Humidity;BMP_temperature;BMP_pressure;BME280_temperature;BME280_humidity;BME280_pressure;Samples;Min_cycle;Max_cycle;Signal;HPM_P1;HPM_P2
2023/05/23 00:01:26;;;;;;;0.30;0.30;;;;;;;;;;5083717;28;20211;-72
2023/05/23 00:03:55;;;;;;;0.15;0.15;;;;;;;;;;5089412;28;20248;-72
2023/05/23 00:06:21;;;;;;;0.00;0.00;;;;;;;;;;5083954;28;20505;-73
2023/05/23 00:08:48;;;;;;;0.10;0.10;;;;;;;;;;5089285;28;20500;-72
2023/05/23 00:11:14;;;;;;;0.00;0.00;;;;;;;;;;5083863;28;20402;-72
2023/05/23 00:13:41;;;;;;;0.10;0.10;;;;;;;;;;5089226;28;20302;-72
2023/05/23 00:16:09;;;;;;;0.10;0.10;;;;;;;;;;5083450;28;20228;-72
2023/05/23 00:18:35;;;;;;;0.10;0.10;;;;;;;;;;5089173;28;20239;-72
2023/05/23 00:21:03;;;;;;;0.10;0.10;;;;;;;;;;5083546;28;20276;-72
2023/05/23 00:23:32;;;;;;;0.10;0.10;;;;;;;;;;5089189;28;20239;-72
2023/05/23 00:25:59;;;;;;;0.08;0.08;;;;;;;;;;5083532;28;20362;-72
2023/05/23 00:28:25;;;;;;;0.08;0.08;;;;;;;;;;5088694;28;20559;-72
2023/05/23 00:30:52;;;;;;;0.10;0.10;;;;;;;;;;5083907;28;20216;-72
2023/05/23 00:33:20;;;;;;;0.10;0.10;;;;;;;;;;5087770;28;20267;-72
2023/05/23 00:35:47;;;;;;;0.10;0.10;;;;;;;;;;5084429;28;20230;-72
2023/05/23 00:38:15;;;;;;;0.47;0.47;;;;;;;;;;5086912;28;20305;-72
2023/05/23 00:40:41;;;;;;;0.10;0.10;;;;;;;;;;5085312;28;20509;-72
2023/05/23 00:43:08;;;;;;;0.10;0.10;;;;;;;;;;5086121;28;20618;-73
2023/05/23 00:45:34;;;;;;;0.10;0.10;;;;;;;;;;5086147;28;20205;-72
2023/05/23 00:48:01;;;;;;;0.00;0.00;;;;;;;;;;5085313;28;20302;-72
2023/05/23 00:50:28;;;;;;;0.70;0.45;;;;;;;;;;5086934;28;20231;-73
2023/05/23 00:52:55;;;;;;;0.08;0.08;;;;;;;;;;5084209;28;20311;-72
2023/05/23 00:55:23;;;;;;;0.00;0.00;;;;;;;;;;5087558;28;20247;-72
2023/05/23 00:57:50;;;;;;;0.00;0.00;;;;;;;;;;5083738;28;20246;-73
2023/05/23 01:00:18;;;;;;;0.10;0.10;;;;;;;;;;5088166;28;20234;-72
2023/05/23 01:02:45;;;;;;;0.10;0.10;;;;;;;;;;5082983;28;20573;-72
2023/05/23 01:05:13;;;;;;;0.77;0.77;;;;;;;;;;5088809;28;20236;-72
2023/05/23 01:07:39;;;;;;;0.00;0.00;;;;;;;;;;5082412;28;20235;-72
2023/05/23 01:10:06;;;;;;;0.00;0.00;;;;;;;;;;5092839;28;20525;-72
2023/05/23 01:12:39;;;;;;;0.10;0.10;;;;;;;;;;5085226;28;20311;-72
2023/05/23 01:15:07;;;;;;;0.08;0.08;;;;;;;;;;5093067;28;20281;-72
2023/05/23 01:17:36;;;;;;;0.10;0.10;;;;;;;;;;5084991;28;20241;-72
2023/05/23 01:20:06;;;;;;;0.08;0.08;;;;;;;;;;5093656;28;20275;-72
2023/05/23 01:22:47;;;;;;;0.10;0.10;;;;;;;;;;5085165;28;20240;-72
2023/05/23 01:25:23;;;;;;;0.10;0.10;;;;;;;;;;5092082;28;20194;-72
2023/05/23 01:27:54;;;;;;;0.00;0.00;;;;;;;;;;5087422;28;20240;-72
2023/05/23 01:30:21;;;;;;;0.10;0.10;;;;;;;;;;5091107;28;20300;-72
2023/05/23 01:32:48;;;;;;;0.00;0.00;;;;;;;;;;5086949;28;20303;-72
2023/05/23 01:35:18;;;;;;;0.00;0.00;;;;;;;;;;5091747;28;20450;-72
2023/05/23 01:37:45;;;;;;;1.23;1.20;;;;;;;;;;5086208;28;20266;-72
2023/05/23 01:40:11;;;;;;;0.03;0.03;;;;;;;;;;5091756;28;20205;-73
2023/05/23 01:42:38;;;;;;;0.00;0.00;;;;;;;;;;5085515;28;20508;-73
2023/05/23 01:45:06;;;;;;;0.10;0.10;;;;;;;;;;5092475;28;20278;-72
2023/05/23 01:47:33;;;;;;;0.10;0.10;;;;;;;;;;5084667;28;20242;-72
2023/05/23 01:50:00;;;;;;;0.00;0.00;;;;;;;;;;5093385;28;20259;-72
2023/05/23 01:52:27;;;;;;;0.00;0.00;;;;;;;;;;5083662;28;20302;-72
2023/05/23 01:54:54;;;;;;;0.08;0.08;;;;;;;;;;5094062;28;20541;-72
2023/05/23 01:57:21;;;;;;;0.10;0.10;;;;;;;;;;5082818;28;20248;-72
2023/05/23 01:59:47;;;;;;;0.10;0.10;;;;;;;;;;5094854;28;20542;-72
2023/05/23 02:02:15;;;;;;;0.00;0.00;;;;;;;;;;5081604;28;20253;-72
2023/05/23 02:04:41;;;;;;;0.10;0.10;;;;;;;;;;5095400;28;20271;-72
2023/05/23 02:07:07;;;;;;;0.00;0.00;;;;;;;;;;5080778;28;20267;-72
2023/05/23 02:09:34;;;;;;;0.00;0.00;;;;;;;;;;5096085;28;20218;-72
2023/05/23 02:12:00;;;;;;;0.00;0.00;;;;;;;;;;5079933;28;20461;-72
2023/05/23 02:14:27;;;;;;;0.05;0.05;;;;;;;;;;5097493;28;20222;-72
2023/05/23 02:16:53;;;;;;;0.10;0.10;;;;;;;;;;5078684;28;20444;-72
2023/05/23 02:19:21;;;;;;;0.10;0.10;;;;;;;;;;5097314;28;20195;-72
2023/05/23 02:21:47;;;;;;;0.10;0.10;;;;;;;;;;5077366;28;20294;-72
2023/05/23 02:24:14;;;;;;;0.10;0.10;;;;;;;;;;5098576;28;20200;-72
2023/05/23 02:26:40;;;;;;;0.10;0.10;;;;;;;;;;5077058;28;20438;-72
2023/05/23 02:29:06;;;;;;;0.10;0.10;;;;;;;;;;5099619;28;20404;-72
2023/05/23 02:31:33;;;;;;;0.50;0.50;;;;;;;;;;5076134;28;20237;-72
2023/05/23 02:33:59;;;;;;;0.10;0.10;;;;;;;;;;5100282;28;20237;-72
2023/05/23 02:36:27;;;;;;;0.10;0.10;;;;;;;;;;5085446;28;20222;-72
2023/05/23 02:38:53;;;;;;;0.10;0.10;;;;;;;;;;5074010;28;20216;-72
2023/05/23 02:41:20;;;;;;;0.10;0.10;;;;;;;;;;5085161;28;20238;-72
2023/05/23 02:43:46;;;;;;;0.10;0.10;;;;;;;;;;5090620;28;20240;-72
2023/05/23 02:46:13;;;;;;;0.10;0.10;;;;;;;;;;5085083;28;20462;-72
2023/05/23 02:48:39;;;;;;;0.05;0.05;;;;;;;;;;5090707;28;20245;-72
2023/05/23 02:51:06;;;;;;;0.10;0.10;;;;;;;;;;5085013;28;20346;-72
2023/05/23 02:53:33;;;;;;;2.83;1.05;;;;;;;;;;5090640;28;20523;-72
2023/05/23 02:56:00;;;;;;;0.25;0.25;;;;;;;;;;5085154;28;20293;-72
2023/05/23 02:58:26;;;;;;;0.10;0.10;;;;;;;;;;5090214;28;20308;-72
2023/05/23 03:00:53;;;;;;;0.20;0.20;;;;;;;;;;5085015;28;20213;-72
2023/05/23 03:03:19;;;;;;;0.00;0.00;;;;;;;;;;5088925;28;20307;-72
2023/05/23 03:05:46;;;;;;;0.10;0.10;;;;;;;;;;5085625;28;20234;-72
2023/05/23 03:08:12;;;;;;;0.57;0.57;;;;;;;;;;5088231;28;20495;-72
2023/05/23 03:10:40;;;;;;;0.10;0.10;;;;;;;;;;5086472;28;20205;-72
2023/05/23 03:13:06;;;;;;;0.10;0.10;;;;;;;;;;5087436;28;20495;-72
2023/05/23 03:15:32;;;;;;;0.52;0.52;;;;;;;;;;5087380;28;20415;-72
2023/05/23 03:17:59;;;;;;;0.10;0.10;;;;;;;;;;5086369;28;20473;-72
2023/05/23 03:20:25;;;;;;;0.03;0.03;;;;;;;;;;5088003;28;20509;-72
2023/05/23 03:22:52;;;;;;;0.25;0.25;;;;;;;;;;5085160;28;20268;-72
2023/05/23 03:25:18;;;;;;;0.00;0.00;;;;;;;;;;5088946;28;20278;-72
2023/05/23 03:27:46;;;;;;;1.65;0.68;;;;;;;;;;5084170;28;20235;-72
2023/05/23 03:30:12;;;;;;;0.03;0.03;;;;;;;;;;5090086;28;20448;-73
2023/05/23 03:32:39;;;;;;;0.10;0.10;;;;;;;;;;5083036;28;20463;-72
2023/05/23 03:35:06;;;;;;;0.00;0.00;;;;;;;;;;5090537;28;20232;-72
2023/05/23 03:37:32;;;;;;;0.00;0.00;;;;;;;;;;5082337;28;20605;-72
2023/05/23 03:39:58;;;;;;;0.08;0.08;;;;;;;;;;5091207;28;20205;-72
2023/05/23 03:42:25;;;;;;;0.10;0.10;;;;;;;;;;5081172;28;20307;-72
2023/05/23 03:44:52;;;;;;;0.10;0.10;;;;;;;;;;5092103;28;20472;-72
2023/05/23 03:47:19;;;;;;;0.03;0.03;;;;;;;;;;5080320;28;20247;-72
2023/05/23 03:49:45;;;;;;;0.45;0.45;;;;;;;;;;5092877;28;20285;-72
2023/05/23 03:52:11;;;;;;;0.10;0.10;;;;;;;;;;5079262;28;20302;-72
2023/05/23 03:54:38;;;;;;;1.50;1.40;;;;;;;;;;5093760;28;20204;-72
2023/05/23 03:57:04;;;;;;;0.10;0.10;;;;;;;;;;5078278;28;20255;-72
2023/05/23 03:59:31;;;;;;;0.00;0.00;;;;;;;;;;5094681;28;20469;-72
2023/05/23 04:01:59;;;;;;;0.08;0.08;;;;;;;;;;5076940;28;20288;-72
2023/05/23 04:04:26;;;;;;;0.10;0.10;;;;;;;;;;5095459;28;20378;-72
2023/05/23 04:06:52;;;;;;;0.17;0.17;;;;;;;;;;5076443;28;20262;-72
2023/05/23 04:09:19;;;;;;;0.10;0.10;;;;;;;;;;5096425;28;20231;-72
2023/05/23 04:11:46;;;;;;;0.10;0.10;;;;;;;;;;5075835;28;20240;-72
2023/05/23 04:14:12;;;;;;;0.05;0.05;;;;;;;;;;5096920;28;20230;-72
2023/05/23 04:16:40;;;;;;;0.10;0.10;;;;;;;;;;5074527;28;20252;-72
2023/05/23 04:19:08;;;;;;;0.10;0.10;;;;;;;;;;5097778;28;20208;-72
2023/05/23 04:21:34;;;;;;;0.10;0.10;;;;;;;;;;5073999;28;20204;-72
2023/05/23 04:24:01;;;;;;;0.10;0.10;;;;;;;;;;5098380;28;20214;-72
2023/05/23 04:26:28;;;;;;;0.10;0.10;;;;;;;;;;5078931;28;20201;-73
2023/05/23 04:28:54;;;;;;;4.25;3.92;;;;;;;;;;5099031;28;20526;-72
2023/05/23 04:31:21;;;;;;;0.10;0.10;;;;;;;;;;5083737;28;20242;-73
2023/05/23 04:33:47;;;;;;;0.68;0.68;;;;;;;;;;5089045;28;20268;-72
2023/05/23 04:36:15;;;;;;;0.10;0.10;;;;;;;;;;5083514;28;20451;-72
2023/05/23 04:38:42;;;;;;;0.00;0.00;;;;;;;;;;5089014;28;20613;-73
2023/05/23 04:41:09;;;;;;;0.05;0.05;;;;;;;;;;5083663;28;20476;-72
2023/05/23 04:43:36;;;;;;;0.10;0.10;;;;;;;;;;5090054;28;20236;-72
2023/05/23 04:46:02;;;;;;;0.10;0.10;;;;;;;;;;5087712;28;20207;-72
2023/05/23 04:48:30;;;;;;;0.10;0.10;;;;;;;;;;5093050;28;20254;-73
2023/05/23 04:50:56;;;;;;;0.10;0.10;;;;;;;;;;5087250;28;20204;-72
2023/05/23 04:53:24;;;;;;;0.00;0.00;;;;;;;;;;5092192;28;20463;-72
2023/05/23 04:55:50;;;;;;;0.00;0.00;;;;;;;;;;5087617;28;20229;-72
2023/05/23 04:58:16;;;;;;;0.20;0.20;;;;;;;;;;5091047;28;20257;-73
2023/05/23 05:00:43;;;;;;;0.20;0.20;;;;;;;;;;5088909;28;20204;-72
2023/05/23 05:03:10;;;;;;;0.10;0.10;;;;;;;;;;5090048;28;20261;-72
2023/05/23 05:05:37;;;;;;;0.20;0.20;;;;;;;;;;5089588;28;20210;-72
2023/05/23 05:08:03;;;;;;;0.03;0.03;;;;;;;;;;5089241;28;20254;-72
2023/05/23 05:10:31;;;;;;;0.10;0.10;;;;;;;;;;5090565;28;20235;-72
2023/05/23 05:12:57;;;;;;;0.10;0.10;;;;;;;;;;5088414;28;20456;-73
2023/05/23 05:15:23;;;;;;;0.10;0.10;;;;;;;;;;5090806;28;20276;-72
2023/05/23 05:17:50;;;;;;;0.00;0.00;;;;;;;;;;5087062;28;20238;-72
2023/05/23 05:20:16;;;;;;;0.10;0.10;;;;;;;;;;5091816;28;20204;-72
2023/05/23 05:22:43;;;;;;;0.20;0.20;;;;;;;;;;5086457;28;20441;-72
2023/05/23 05:25:10;;;;;;;0.35;0.35;;;;;;;;;;5092336;28;20210;-73
2023/05/23 05:27:39;;;;;;;0.05;0.05;;;;;;;;;;5085327;28;20238;-72
2023/05/23 05:30:06;;;;;;;0.10;0.10;;;;;;;;;;5093214;28;20210;-72
2023/05/23 05:32:33;;;;;;;0.10;0.10;;;;;;;;;;5084601;28;20306;-72
2023/05/23 05:34:59;;;;;;;0.10;0.10;;;;;;;;;;5093975;28;20394;-72
2023/05/23 05:37:26;;;;;;;0.10;0.10;;;;;;;;;;5083705;28;20240;-72
2023/05/23 05:39:53;;;;;;;0.10;0.10;;;;;;;;;;5094757;28;20301;-72
2023/05/23 05:42:19;;;;;;;0.10;0.10;;;;;;;;;;5091857;28;20249;-73
2023/05/23 05:44:47;;;;;;;3.55;2.17;;;;;;;;;;5086602;28;20400;-73
2023/05/23 05:47:13;;;;;;;0.45;0.45;;;;;;;;;;5091708;28;20240;-73
2023/05/23 05:49:40;;;;;;;0.05;0.05;;;;;;;;;;5086455;28;20391;-73
2023/05/23 05:52:07;;;;;;;0.10;0.10;;;;;;;;;;5091543;28;20313;-72
2023/05/23 05:54:33;;;;;;;0.03;0.03;;;;;;;;;;5085941;28;20274;-72
2023/05/23 05:56:59;;;;;;;0.10;0.10;;;;;;;;;;5090323;28;20337;-72
2023/05/23 05:59:26;;;;;;;0.00;0.00;;;;;;;;;;5087182;28;20232;-73
2023/05/23 06:01:54;;;;;;;0.03;0.03;;;;;;;;;;5089027;28;20246;-72
2023/05/23 06:04:20;;;;;;;0.08;0.08;;;;;;;;;;5088193;28;20270;-72
2023/05/23 06:06:46;;;;;;;0.10;0.10;;;;;;;;;;5088634;28;20278;-73
2023/05/23 06:09:13;;;;;;;0.10;0.10;;;;;;;;;;5088799;28;20521;-73
2023/05/23 06:11:39;;;;;;;8.10;7.65;;;;;;;;;;5087599;28;20259;-72
2023/05/23 06:14:06;;;;;;;1.50;1.40;;;;;;;;;;5089550;28;20203;-73
2023/05/23 06:16:32;;;;;;;0.10;0.10;;;;;;;;;;5086482;28;20254;-72
2023/05/23 06:19:00;;;;;;;0.00;0.00;;;;;;;;;;5090293;28;20270;-72
2023/05/23 06:21:26;;;;;;;0.10;0.10;;;;;;;;;;5085634;28;20246;-72
2023/05/23 06:23:53;;;;;;;0.05;0.05;;;;;;;;;;5091021;28;20212;-73
2023/05/23 06:26:19;;;;;;;0.10;0.10;;;;;;;;;;5084670;28;20303;-73
2023/05/23 06:28:45;;;;;;;1.33;1.33;;;;;;;;;;5091952;28;20232;-72
2023/05/23 06:31:12;;;;;;;0.20;0.20;;;;;;;;;;5083667;28;20587;-72
2023/05/23 06:33:38;;;;;;;0.00;0.00;;;;;;;;;;5092738;28;20395;-72
2023/05/23 06:36:06;;;;;;;0.43;0.43;;;;;;;;;;5082497;28;20306;-72
2023/05/23 06:38:33;;;;;;;3.75;1.83;;;;;;;;;;5093601;28;20281;-72
2023/05/23 06:41:01;;;;;;;0.60;0.60;;;;;;;;;;5081664;28;20240;-78
2023/05/23 06:43:27;;;;;;;0.77;0.77;;;;;;;;;;5093744;28;20503;-77
2023/05/23 06:45:54;;;;;;;0.10;0.10;;;;;;;;;;5081135;28;20360;-73
2023/05/23 06:48:20;;;;;;;0.03;0.03;;;;;;;;;;5095036;28;20200;-78
2023/05/23 06:50:48;;;;;;;0.63;0.63;;;;;;;;;;5076800;28;20239;-77
2023/05/23 06:53:17;;;;;;;0.10;0.10;;;;;;;;;;5095310;28;20207;-76
2023/05/23 06:55:43;;;;;;;0.15;0.15;;;;;;;;;;5079730;28;20266;-76
2023/05/23 06:58:10;;;;;;;0.03;0.03;;;;;;;;;;5095705;28;20463;-77
2023/05/23 07:00:37;;;;;;;0.52;0.50;;;;;;;;;;5078703;28;20239;-77
2023/05/23 07:03:03;;;;;;;0.10;0.10;;;;;;;;;;5097013;28;20204;-77
2023/05/23 07:05:32;;;;;;;0.10;0.10;;;;;;;;;;5077099;28;20254;-77
2023/05/23 07:07:58;;;;;;;0.15;0.15;;;;;;;;;;5097380;28;20199;-77
2023/05/23 07:10:26;;;;;;;0.10;0.10;;;;;;;;;;5076575;28;20203;-77
2023/05/23 07:12:52;;;;;;;0.10;0.10;;;;;;;;;;5098282;28;20288;-77
2023/05/23 07:15:20;;;;;;;0.10;0.10;;;;;;;;;;5075690;28;20204;-77
2023/05/23 07:17:47;;;;;;;0.05;0.05;;;;;;;;;;5098891;28;20286;-77
2023/05/23 07:20:13;;;;;;;0.40;0.40;;;;;;;;;;5074887;28;20388;-76
2023/05/23 07:22:39;;;;;;;0.10;0.10;;;;;;;;;;5099584;28;20204;-76
2023/05/23 07:25:07;;;;;;;0.00;0.00;;;;;;;;;;5084387;28;20241;-76
2023/05/23 07:27:35;;;;;;;0.32;0.32;;;;;;;;;;5053026;28;20239;-76
2023/05/23 07:30:01;;;;;;;0.10;0.10;;;;;;;;;;5064236;28;20216;-75
2023/05/23 07:32:28;;;;;;;1.30;1.20;;;;;;;;;;5089388;28;20243;-76
2023/05/23 07:34:54;;;;;;;0.10;0.10;;;;;;;;;;5084112;28;20519;-76
2023/05/23 07:37:21;;;;;;;0.10;0.10;;;;;;;;;;5089449;28;20257;-77
2023/05/23 07:39:47;;;;;;;0.00;0.00;;;;;;;;;;5084071;28;20203;-76
2023/05/23 07:42:14;;;;;;;0.10;0.10;;;;;;;;;;5089606;28;20485;-77
2023/05/23 07:44:42;;;;;;;0.10;0.10;;;;;;;;;;5083888;28;20219;-77
2023/05/23 07:47:08;;;;;;;0.10;0.10;;;;;;;;;;5089381;28;20550;-76
2023/05/23 07:49:35;;;;;;;0.50;0.50;;;;;;;;;;5083998;28;20204;-76
2023/05/23 07:52:01;;;;;;;0.08;0.08;;;;;;;;;;5088587;28;20262;-76
2023/05/23 07:54:28;;;;;;;0.30;0.30;;;;;;;;;;5084656;28;20213;-76
2023/05/23 07:56:54;;;;;;;0.25;0.25;;;;;;;;;;5087740;28;20252;-77
2023/05/23 07:59:21;;;;;;;0.10;0.10;;;;;;;;;;5085495;28;20294;-76
2023/05/23 08:01:50;;;;;;;1.27;1.27;;;;;;;;;;5086741;28;20250;-75
2023/05/23 08:04:16;;;;;;;0.10;0.10;;;;;;;;;;5086323;28;20227;-75
2023/05/23 08:06:46;;;;;;;0.10;0.10;;;;;;;;;;5085767;28;20263;-74
2023/05/23 08:09:12;;;;;;;0.00;0.00;;;;;;;;;;5086652;28;20203;-75
2023/05/23 08:11:38;;;;;;;0.10;0.10;;;;;;;;;;5085374;28;20261;-74
2023/05/23 08:14:05;;;;;;;0.10;0.10;;;;;;;;;;5087769;28;20433;-75
2023/05/23 08:16:31;;;;;;;0.00;0.00;;;;;;;;;;5084195;28;20251;-74
2023/05/23 08:18:59;;;;;;;0.10;0.10;;;;;;;;;;5087529;28;20276;-75
2023/05/23 08:21:25;;;;;;;0.10;0.10;;;;;;;;;;5083379;28;20269;-75
2023/05/23 08:23:51;;;;;;;0.10;0.10;;;;;;;;;;5088994;28;20241;-75
2023/05/23 08:26:18;;;;;;;0.03;0.03;;;;;;;;;;5082463;28;20238;-75
2023/05/23 08:28:44;;;;;;;0.00;0.00;;;;;;;;;;5090046;28;20440;-75
2023/05/23 08:31:11;;;;;;;0.10;0.10;;;;;;;;;;5081615;28;20259;-75
2023/05/23 08:33:37;;;;;;;0.38;0.38;;;;;;;;;;5091161;28;20512;-74
2023/05/23 08:36:05;;;;;;;0.10;0.10;;;;;;;;;;5080443;28;20239;-75
2023/05/23 08:38:31;;;;;;;0.10;0.10;;;;;;;;;;5091908;28;20269;-75
2023/05/23 08:41:00;;;;;;;0.10;0.10;;;;;;;;;;5079667;28;20242;-75
2023/05/23 08:43:27;;;;;;;0.10;0.10;;;;;;;;;;5092406;28;20211;-74
2023/05/23 08:45:53;;;;;;;0.10;0.10;;;;;;;;;;5079037;28;20239;-75
2023/05/23 08:48:20;;;;;;;0.10;0.10;;;;;;;;;;5094665;28;20419;-75
2023/05/23 08:50:47;;;;;;;0.10;0.10;;;;;;;;;;5078248;28;20517;-75
2023/05/23 08:53:19;;;;;;;0.10;0.10;;;;;;;;;;5094089;28;20398;-75
2023/05/23 08:55:46;;;;;;;0.10;0.10;;;;;;;;;;5078143;28;20286;-75
2023/05/23 08:58:13;;;;;;;0.05;0.05;;;;;;;;;;5093819;28;20233;-76
2023/05/23 09:00:40;;;;;;;0.10;0.10;;;;;;;;;;5077108;28;20237;-75
2023/05/23 09:03:06;;;;;;;0.10;0.10;;;;;;;;;;5094922;28;20462;-75
2023/05/23 09:05:33;;;;;;;0.55;0.55;;;;;;;;;;5076831;28;20246;-75
2023/05/23 09:07:59;;;;;;;0.10;0.10;;;;;;;;;;5096125;28;20224;-75
2023/05/23 09:10:28;;;;;;;0.35;0.35;;;;;;;;;;5075105;28;20213;-75
2023/05/23 09:12:55;;;;;;;0.10;0.10;;;;;;;;;;5096460;28;20209;-75
2023/05/23 09:15:22;;;;;;;2.38;2.15;;;;;;;;;;5074607;28;20205;-76
2023/05/23 09:17:49;;;;;;;0.10;0.10;;;;;;;;;;5096984;28;20217;-75
2023/05/23 09:20:16;;;;;;;0.10;0.10;;;;;;;;;;5073695;28;20214;-76
2023/05/23 09:22:45;;;;;;;0.00;0.00;;;;;;;;;;5097742;28;20227;-75
2023/05/23 09:25:12;;;;;;;0.10;0.10;;;;;;;;;;5073157;28;20237;-75
2023/05/23 09:27:40;;;;;;;0.10;0.10;;;;;;;;;;5098350;28;20207;-75
2023/05/23 09:30:07;;;;;;;0.10;0.10;;;;;;;;;;5085336;28;20204;-75
2023/05/23 09:32:33;;;;;;;0.52;0.52;;;;;;;;;;5055499;28;20282;-75
2023/05/23 09:35:02;;;;;;;0.10;0.10;;;;;;;;;;5066593;28;20206;-75
2023/05/23 09:37:32;;;;;;;0.10;0.10;;;;;;;;;;5091687;28;20244;-75
2023/05/23 09:39:59;;;;;;;0.00;0.00;;;;;;;;;;5086420;28;20253;-75
2023/05/23 09:42:31;;;;;;;0.10;0.10;;;;;;;;;;5091946;28;20406;-75
2023/05/23 09:44:59;;;;;;;0.10;0.10;;;;;;;;;;5086358;28;20262;-74
2023/05/23 09:47:26;;;;;;;0.05;0.05;;;;;;;;;;5092056;28;20329;-75
2023/05/23 09:49:52;;;;;;;0.03;0.03;;;;;;;;;;5086513;28;20546;-75
2023/05/23 09:52:20;;;;;;;0.10;0.10;;;;;;;;;;5091820;28;20264;-75
2023/05/23 09:54:46;;;;;;;0.10;0.10;;;;;;;;;;5086486;28;20201;-75
2023/05/23 09:57:14;;;;;;;0.00;0.00;;;;;;;;;;5091608;28;20476;-75
2023/05/23 09:59:41;;;;;;;0.10;0.10;;;;;;;;;;5086005;28;20225;-75
2023/05/23 10:02:11;;;;;;;0.10;0.10;;;;;;;;;;5091711;28;20580;-74
2023/05/23 10:04:39;;;;;;;0.10;0.10;;;;;;;;;;5085822;28;20222;-75
2023/05/23 10:07:10;;;;;;;0.10;0.10;;;;;;;;;;5090990;28;20311;-74
2023/05/23 10:09:37;;;;;;;0.10;0.10;;;;;;;;;;5086058;28;20233;-74
2023/05/23 10:12:31;;;;;;;0.10;0.10;;;;;;;;;;5091033;28;20252;-74
2023/05/23 10:15:01;;;;;;;0.00;0.00;;;;;;;;;;5086194;28;20194;-74
2023/05/23 10:17:32;;;;;;;0.10;0.10;;;;;;;;;;5091343;28;20442;-74
2023/05/23 10:20:01;;;;;;;0.10;0.10;;;;;;;;;;5086001;28;20442;-74
2023/05/23 10:22:27;;;;;;;0.10;0.10;;;;;;;;;;5091215;28;20293;-75
2023/05/23 10:24:54;;;;;;;0.00;0.00;;;;;;;;;;5085640;28;20277;-74
2023/05/23 10:27:20;;;;;;;0.00;0.00;;;;;;;;;;5091184;28;20265;-74
2023/05/23 10:29:47;;;;;;;0.00;0.00;;;;;;;;;;5085537;28;20236;-74
2023/05/23 10:32:14;;;;;;;0.00;0.00;;;;;;;;;;5090974;28;20239;-74
2023/05/23 10:34:47;;;;;;;0.10;0.10;;;;;;;;;;5085655;28;20206;-74
2023/05/23 10:37:18;;;;;;;0.10;0.10;;;;;;;;;;5091167;28;20238;-74
2023/05/23 10:39:49;;;;;;;0.10;0.10;;;;;;;;;;5085725;28;20188;-74
2023/05/23 10:42:18;;;;;;;0.10;0.10;;;;;;;;;;5089879;28;20256;-75
2023/05/23 10:44:45;;;;;;;0.03;0.03;;;;;;;;;;5085191;28;20204;-74
2023/05/23 10:47:11;;;;;;;0.10;0.10;;;;;;;;;;5090787;28;20241;-74
2023/05/23 10:49:38;;;;;;;0.10;0.10;;;;;;;;;;5085403;28;20228;-74
2023/05/23 10:52:07;;;;;;;0.10;0.10;;;;;;;;;;5090231;28;20253;-75
2023/05/23 10:54:34;;;;;;;0.00;0.00;;;;;;;;;;5085479;28;20233;-74
2023/05/23 10:57:04;;;;;;;0.05;0.05;;;;;;;;;;5089652;28;20285;-74
2023/05/23 10:59:31;;;;;;;0.85;0.85;;;;;;;;;;5085084;28;20260;-74
2023/05/23 11:01:59;;;;;;;0.05;0.05;;;;;;;;;;5089021;28;20246;-74
2023/05/23 11:04:26;;;;;;;0.47;0.47;;;;;;;;;;5085866;28;20212;-75
2023/05/23 11:06:53;;;;;;;0.10;0.10;;;;;;;;;;5088186;28;20257;-74
2023/05/23 11:09:21;;;;;;;0.10;0.10;;;;;;;;;;5086574;28;20202;-73
2023/05/23 11:11:56;;;;;;;0.10;0.10;;;;;;;;;;5087543;28;20241;-74
2023/05/23 11:14:31;;;;;;;0.00;0.00;;;;;;;;;;5086003;28;20203;-74
2023/05/23 11:16:58;;;;;;;0.03;0.03;;;;;;;;;;5088743;28;20254;-75
2023/05/23 11:19:26;;;;;;;0.08;0.08;;;;;;;;;;5085568;28;20219;-74
2023/05/23 11:21:53;;;;;;;0.10;0.10;;;;;;;;;;5087909;28;20250;-74
2023/05/23 11:24:21;;;;;;;0.10;0.10;;;;;;;;;;5086392;28;20204;-74
2023/05/23 11:26:58;;;;;;;0.10;0.10;;;;;;;;;;5087342;28;20239;-74
2023/05/23 11:29:25;;;;;;;0.05;0.05;;;;;;;;;;5085456;28;20383;-75
2023/05/23 11:31:51;;;;;;;0.10;0.10;;;;;;;;;;5087622;28;20244;-74
2023/05/23 11:34:18;;;;;;;0.10;0.10;;;;;;;;;;5086307;28;20276;-74
2023/05/23 11:36:45;;;;;;;0.10;0.10;;;;;;;;;;5086544;28;20285;-74
2023/05/23 11:39:14;;;;;;;0.10;0.10;;;;;;;;;;5086880;28;20235;-74
2023/05/23 11:41:43;;;;;;;0.03;0.03;;;;;;;;;;5086044;28;20243;-75
2023/05/23 11:44:12;;;;;;;0.10;0.10;;;;;;;;;;5087424;28;20212;-75
2023/05/23 11:46:39;;;;;;;0.03;0.03;;;;;;;;;;5085848;28;20484;-77
2023/05/23 11:49:10;;;;;;;0.00;0.00;;;;;;;;;;5087749;28;20200;-77
2023/05/23 11:51:36;;;;;;;0.10;0.10;;;;;;;;;;5085277;28;20441;-77
2023/05/23 11:54:03;;;;;;;0.00;0.00;;;;;;;;;;5088102;28;20274;-77
2023/05/23 11:56:29;;;;;;;0.10;0.10;;;;;;;;;;5084123;28;20246;-77
2023/05/23 11:58:57;;;;;;;0.10;0.10;;;;;;;;;;5088999;28;20258;-77
2023/05/23 12:01:30;;;;;;;0.10;0.10;;;;;;;;;;5082921;28;20241;-77
2023/05/23 12:03:56;;;;;;;0.10;0.10;;;;;;;;;;5089036;28;20264;-76
2023/05/23 12:06:23;;;;;;;0.00;0.00;;;;;;;;;;5083271;28;20241;-78
2023/05/23 12:08:51;;;;;;;0.10;0.10;;;;;;;;;;5089565;28;20372;-78
2023/05/23 12:11:17;;;;;;;0.10;0.10;;;;;;;;;;5082487;28;20621;-79
2023/05/23 12:13:44;;;;;;;0.15;0.15;;;;;;;;;;5090463;28;20203;-79
2023/05/23 12:16:13;;;;;;;0.10;0.10;;;;;;;;;;5081453;28;20235;-79
2023/05/23 12:18:39;;;;;;;0.10;0.10;;;;;;;;;;5091018;28;20237;-79
2023/05/23 12:21:06;;;;;;;0.10;0.10;;;;;;;;;;5080905;28;20243;-79
2023/05/23 12:23:34;;;;;;;0.00;0.00;;;;;;;;;;5091433;28;20222;-79
2023/05/23 12:26:03;;;;;;;0.10;0.10;;;;;;;;;;5080038;28;20254;-79
2023/05/23 12:28:37;;;;;;;0.10;0.10;;;;;;;;;;5091921;28;20236;-79
2023/05/23 12:31:10;;;;;;;0.10;0.10;;;;;;;;;;5080699;28;20250;-79
2023/05/23 12:33:40;;;;;;;0.00;0.00;;;;;;;;;;5091195;28;20519;-79
2023/05/23 12:36:06;;;;;;;0.40;0.20;;;;;;;;;;5080893;28;22203;-79
2023/05/23 12:38:36;;;;;;;0.03;0.03;;;;;;;;;;5091641;28;20293;-79
2023/05/23 12:41:09;;;;;;;0.05;0.05;;;;;;;;;;5080405;28;20261;-79
2023/05/23 12:43:37;;;;;;;0.10;0.10;;;;;;;;;;5090920;28;20198;-78
2023/05/23 12:46:03;;;;;;;0.10;0.10;;;;;;;;;;5081039;28;20245;-77
2023/05/23 12:48:30;;;;;;;0.10;0.10;;;;;;;;;;5092219;28;20231;-78
2023/05/23 12:50:58;;;;;;;0.10;0.10;;;;;;;;;;5079715;28;20275;-78
2023/05/23 12:53:25;;;;;;;0.10;0.10;;;;;;;;;;5092629;28;20210;-78
2023/05/23 12:55:52;;;;;;;0.05;0.05;;;;;;;;;;5078452;28;20265;-78
2023/05/23 12:58:18;;;;;;;0.00;0.00;;;;;;;;;;5093041;28;20307;-77
2023/05/23 13:00:45;;;;;;;0.08;0.08;;;;;;;;;;5077955;28;20404;-78
2023/05/23 13:03:11;;;;;;;0.10;0.10;;;;;;;;;;5094532;28;20203;-78
2023/05/23 13:05:38;;;;;;;0.00;0.00;;;;;;;;;;5080012;28;20294;-79
2023/05/23 13:08:06;;;;;;;0.20;0.20;;;;;;;;;;5099174;28;20275;-80
2023/05/23 13:10:32;;;;;;;0.35;0.35;;;;;;;;;;5080258;28;20238;-75
2023/05/23 13:12:59;;;;;;;0.10;0.10;;;;;;;;;;5099924;28;20232;-78
2023/05/23 13:15:25;;;;;;;0.00;0.00;;;;;;;;;;5079222;28;20261;-79
2023/05/23 13:17:52;;;;;;;0.10;0.10;;;;;;;;;;5100687;28;20538;-78
2023/05/23 13:20:18;;;;;;;0.10;0.10;;;;;;;;;;5078172;28;20402;-75
2023/05/23 13:22:45;;;;;;;0.10;0.10;;;;;;;;;;5101698;28;20234;-79
2023/05/23 13:25:13;;;;;;;0.10;0.10;;;;;;;;;;5077525;28;20206;-78
2023/05/23 13:27:39;;;;;;;1.03;1.00;;;;;;;;;;5102355;28;20207;-79
2023/05/23 13:30:06;;;;;;;0.10;0.10;;;;;;;;;;5087076;28;20209;-79
2023/05/23 13:32:33;;;;;;;0.10;0.10;;;;;;;;;;5092768;28;20241;-78
2023/05/23 13:34:59;;;;;;;0.10;0.10;;;;;;;;;;5086840;28;20203;-79
2023/05/23 13:37:27;;;;;;;0.10;0.10;;;;;;;;;;5092425;28;20240;-78
2023/05/23 13:39:53;;;;;;;0.10;0.10;;;;;;;;;;5086521;28;20228;-78
2023/05/23 13:42:21;;;;;;;0.10;0.10;;;;;;;;;;5091986;28;20446;-78
2023/05/23 13:44:48;;;;;;;0.10;0.10;;;;;;;;;;5086476;28;20417;-78
2023/05/23 13:47:14;;;;;;;0.10;0.10;;;;;;;;;;5092227;28;20245;-77
2023/05/23 13:49:41;;;;;;;0.07;0.07;;;;;;;;;;5086465;28;20537;-78
2023/05/23 13:52:08;;;;;;;0.10;0.10;;;;;;;;;;5092047;28;20311;-78
2023/05/23 13:54:34;;;;;;;0.10;0.10;;;;;;;;;;5086333;28;20243;-79
2023/05/23 13:57:01;;;;;;;0.00;0.00;;;;;;;;;;5090947;28;20249;-77
2023/05/23 13:59:29;;;;;;;0.10;0.10;;;;;;;;;;5086688;28;20227;-77
2023/05/23 14:01:55;;;;;;;0.20;0.20;;;;;;;;;;5090070;28;20250;-78
2023/05/23 14:04:22;;;;;;;0.10;0.10;;;;;;;;;;5087581;28;20206;-78
2023/05/23 14:06:48;;;;;;;0.10;0.10;;;;;;;;;;5089003;28;20568;-78
2023/05/23 14:09:15;;;;;;;0.10;0.10;;;;;;;;;;5088894;28;20432;-76
2023/05/23 14:11:41;;;;;;;0.10;0.10;;;;;;;;;;5088140;28;20245;-77
2023/05/23 14:14:08;;;;;;;1.33;1.23;;;;;;;;;;5089396;28;20228;-77
2023/05/23 14:16:36;;;;;;;0.10;0.10;;;;;;;;;;5086871;28;20257;-78
2023/05/23 14:19:02;;;;;;;0.07;0.07;;;;;;;;;;5090281;28;20252;-79
2023/05/23 14:21:28;;;;;;;0.10;0.10;;;;;;;;;;5086142;28;20432;-76
2023/05/23 14:23:55;;;;;;;0.10;0.10;;;;;;;;;;5090819;28;20205;-77
2023/05/23 14:26:22;;;;;;;0.10;0.10;;;;;;;;;;5085498;28;20445;-83
2023/05/23 14:28:48;;;;;;;0.10;0.10;;;;;;;;;;5091851;28;20269;-80
2023/05/23 14:31:15;;;;;;;0.20;0.20;;;;;;;;;;5084332;28;20442;-79
2023/05/23 14:33:42;;;;;;;0.03;0.03;;;;;;;;;;5092396;28;20207;-79
2023/05/23 14:36:09;;;;;;;0.10;0.10;;;;;;;;;;5083244;28;20308;-79
2023/05/23 14:38:36;;;;;;;0.10;0.10;;;;;;;;;;5093038;28;20196;-79
2023/05/23 14:41:02;;;;;;;0.10;0.10;;;;;;;;;;5082124;28;20601;-77
2023/05/23 14:43:29;;;;;;;0.10;0.10;;;;;;;;;;5093936;28;20245;-77